sensor_id;sensor_type;location;lat;lon;timestamp;temperature;humidity
22173;DHT22;11252;50.596;17.648;2023-11-22T00:02:18;1.10;92.20
22173;DHT22;11252;50.596;17.648;2023-11-22T00:04:45;1.10;92.20
22173;DHT22;11252;50.596;17.648;2023-11-22T00:07:12;1.10;92.20
22173;DHT22;11252;50.596;17.648;2023-11-22T00:09:39;1.10;92.20
22173;DHT22;11252;50.596;17.648;2023-11-22T00:12:06;1.10;92.20
22173;DHT22;11252;50.596;17.648;2023-11-22T00:14:33;1.00;92.20
22173;DHT22;11252;50.596;17.648;2023-11-22T00:17:02;1.10;92.20
22173;DHT22;11252;50.596;17.648;2023-11-22T00:19:29;1.10;92.20
22173;DHT22;11252;50.596;17.648;2023-11-22T00:21:57;1.10;92.20
22173;DHT22;11252;50.596;17.648;2023-11-22T00:24:24;1.10;92.20
22173;DHT22;11252;50.596;17.648;2023-11-22T00:26:51;1.10;92.20
22173;DHT22;11252;50.596;17.648;2023-11-22T00:29:18;1.10;92.20
22173;DHT22;11252;50.596;17.648;2023-11-22T00:31:45;1.10;92.20
22173;DHT22;11252;50.596;17.648;2023-11-22T00:34:12;1.10;92.20
22173;DHT22;11252;50.596;17.648;2023-11-22T00:36:39;1.00;92.20
22173;DHT22;11252;50.596;17.648;2023-11-22T00:39:07;1.10;92.20
22173;DHT22;11252;50.596;17.648;2023-11-22T00:41:36;1.00;92.20
22173;DHT22;11252;50.596;17.648;2023-11-22T00:44:03;1.00;92.20
22173;DHT22;11252;50.596;17.648;2023-11-22T00:46:30;0.90;92.20
22173;DHT22;11252;50.596;17.648;2023-11-22T00:48:58;0.90;92.20
22173;DHT22;11252;50.596;17.648;2023-11-22T00:51:25;0.90;92.20
22173;DHT22;11252;50.596;17.648;2023-11-22T00:53:52;1.00;92.20
22173;DHT22;11252;50.596;17.648;2023-11-22T00:56:19;1.00;92.20
22173;DHT22;11252;50.596;17.648;2023-11-22T00:58:47;1.00;92.20
22173;DHT22;11252;50.596;17.648;2023-11-22T01:01:17;1.00;92.20
22173;DHT22;11252;50.596;17.648;2023-11-22T01:03:45;1.00;92.20
22173;DHT22;11252;50.596;17.648;2023-11-22T01:06:14;1.00;92.20
22173;DHT22;11252;50.596;17.648;2023-11-22T01:08:41;1.00;92.20
22173;DHT22;11252;50.596;17.648;2023-11-22T01:11:07;1.00;92.20
22173;DHT22;11252;50.596;17.648;2023-11-22T01:13:34;0.90;92.20
22173;DHT22;11252;50.596;17.648;2023-11-22T01:16:07;0.90;92.20
22173;DHT22;11252;50.596;17.648;2023-11-22T01:18:35;0.90;92.20
22173;DHT22;11252;50.596;17.648;2023-11-22T01:21:04;0.90;92.20
22173;DHT22;11252;50.596;17.648;2023-11-22T01:23:31;0.80;92.20
22173;DHT22;11252;50.596;17.648;2023-11-22T01:25:59;0.90;92.20
22173;DHT22;11252;50.596;17.648;2023-11-22T01:28:29;0.80;92.20
22173;DHT22;11252;50.596;17.648;2023-11-22T01:31:01;0.80;92.20
22173;DHT22;11252;50.596;17.648;2023-11-22T01:33:31;0.80;92.20
22173;DHT22;11252;50.596;17.648;2023-11-22T01:35:59;0.80;92.20
22173;DHT22;11252;50.596;17.648;2023-11-22T01:38:26;0.70;92.20
22173;DHT22;11252;50.596;17.648;2023-11-22T01:40:53;0.70;92.20
22173;DHT22;11252;50.596;17.648;2023-11-22T01:43:20;0.70;92.20
22173;DHT22;11252;50.596;17.648;2023-11-22T01:45:51;0.70;92.20
22173;DHT22;11252;50.596;17.648;2023-11-22T01:48:18;0.60;92.20
22173;DHT22;11252;50.596;17.648;2023-11-22T01:50:46;0.70;92.20
22173;DHT22;11252;50.596;17.648;2023-11-22T01:53:13;0.60;92.20
22173;DHT22;11252;50.596;17.648;2023-11-22T01:55:44;0.70;92.20
22173;DHT22;11252;50.596;17.648;2023-11-22T01:58:14;0.60;92.20
22173;DHT22;11252;50.596;17.648;2023-11-22T02:00:45;0.70;92.20
22173;DHT22;11252;50.596;17.648;2023-11-22T02:03:16;0.70;92.20
22173;DHT22;11252;50.596;17.648;2023-11-22T02:05:44;0.70;92.20
22173;DHT22;11252;50.596;17.648;2023-11-22T02:08:12;0.70;92.20
22173;DHT22;11252;50.596;17.648;2023-11-22T02:10:40;0.60;92.20
22173;DHT22;11252;50.596;17.648;2023-11-22T02:13:07;0.60;92.20
22173;DHT22;11252;50.596;17.648;2023-11-22T02:15:35;0.60;92.20
22173;DHT22;11252;50.596;17.648;2023-11-22T02:18:03;0.70;92.20
22173;DHT22;11252;50.596;17.648;2023-11-22T02:20:39;0.60;92.20
22173;DHT22;11252;50.596;17.648;2023-11-22T02:23:10;0.60;92.20
22173;DHT22;11252;50.596;17.648;2023-11-22T02:25:38;0.60;92.20
22173;DHT22;11252;50.596;17.648;2023-11-22T02:28:05;0.60;92.20
22173;DHT22;11252;50.596;17.648;2023-11-22T02:30:36;0.60;92.20
22173;DHT22;11252;50.596;17.648;2023-11-22T02:33:03;0.50;92.20
22173;DHT22;11252;50.596;17.648;2023-11-22T02:35:32;0.50;92.20
22173;DHT22;11252;50.596;17.648;2023-11-22T02:38:00;0.50;92.20
22173;DHT22;11252;50.596;17.648;2023-11-22T02:40:27;0.50;92.20
22173;DHT22;11252;50.596;17.648;2023-11-22T02:42:55;0.60;92.20
22173;DHT22;11252;50.596;17.648;2023-11-22T02:45:28;0.50;92.20
22173;DHT22;11252;50.596;17.648;2023-11-22T02:47:56;0.50;92.20
22173;DHT22;11252;50.596;17.648;2023-11-22T02:50:24;0.50;92.20
22173;DHT22;11252;50.596;17.648;2023-11-22T02:52:52;0.50;92.20
22173;DHT22;11252;50.596;17.648;2023-11-22T02:55:19;0.50;92.20
22173;DHT22;11252;50.596;17.648;2023-11-22T02:57:46;0.50;92.20
22173;DHT22;11252;50.596;17.648;2023-11-22T03:00:13;0.50;92.20
22173;DHT22;11252;50.596;17.648;2023-11-22T03:02:41;0.50;92.20
22173;DHT22;11252;50.596;17.648;2023-11-22T03:05:09;0.50;92.20
22173;DHT22;11252;50.596;17.648;2023-11-22T03:07:37;0.50;92.20
22173;DHT22;11252;50.596;17.648;2023-11-22T03:10:04;0.60;92.20
22173;DHT22;11252;50.596;17.648;2023-11-22T03:12:34;0.50;92.20
22173;DHT22;11252;50.596;17.648;2023-11-22T03:15:02;0.50;92.20
22173;DHT22;11252;50.596;17.648;2023-11-22T03:17:30;0.50;92.20
22173;DHT22;11252;50.596;17.648;2023-11-22T03:19:57;0.40;92.20
22173;DHT22;11252;50.596;17.648;2023-11-22T03:22:25;0.50;92.20
22173;DHT22;11252;50.596;17.648;2023-11-22T03:24:53;0.40;92.20
22173;DHT22;11252;50.596;17.648;2023-11-22T03:27:20;0.40;92.20
22173;DHT22;11252;50.596;17.648;2023-11-22T03:29:50;0.40;92.20
22173;DHT22;11252;50.596;17.648;2023-11-22T03:32:17;0.40;92.20
22173;DHT22;11252;50.596;17.648;2023-11-22T03:34:45;0.50;92.20
22173;DHT22;11252;50.596;17.648;2023-11-22T03:37:12;0.50;92.20
22173;DHT22;11252;50.596;17.648;2023-11-22T03:39:40;0.50;92.20
22173;DHT22;11252;50.596;17.648;2023-11-22T03:42:08;0.40;92.20
22173;DHT22;11252;50.596;17.648;2023-11-22T03:44:35;0.40;92.20
22173;DHT22;11252;50.596;17.648;2023-11-22T03:47:02;0.40;92.20
22173;DHT22;11252;50.596;17.648;2023-11-22T03:49:29;0.40;92.20
22173;DHT22;11252;50.596;17.648;2023-11-22T03:51:56;0.50;92.20
22173;DHT22;11252;50.596;17.648;2023-11-22T03:54:23;0.50;92.20
22173;DHT22;11252;50.596;17.648;2023-11-22T03:56:50;0.40;92.20
22173;DHT22;11252;50.596;17.648;2023-11-22T03:59:18;0.40;92.20
22173;DHT22;11252;50.596;17.648;2023-11-22T04:01:45;0.50;92.20
22173;DHT22;11252;50.596;17.648;2023-11-22T04:04:12;0.40;92.20
22173;DHT22;11252;50.596;17.648;2023-11-22T04:06:39;0.40;92.20
22173;DHT22;11252;50.596;17.648;2023-11-22T04:09:07;0.40;92.20
22173;DHT22;11252;50.596;17.648;2023-11-22T04:11:35;0.40;92.20
22173;DHT22;11252;50.596;17.648;2023-11-22T04:14:02;0.30;92.20
22173;DHT22;11252;50.596;17.648;2023-11-22T04:16:30;0.30;92.20
22173;DHT22;11252;50.596;17.648;2023-11-22T04:18:57;0.30;92.20
22173;DHT22;11252;50.596;17.648;2023-11-22T04:21:25;0.30;92.20
22173;DHT22;11252;50.596;17.648;2023-11-22T04:23:52;0.30;92.20
22173;DHT22;11252;50.596;17.648;2023-11-22T04:26:19;0.30;92.20
22173;DHT22;11252;50.596;17.648;2023-11-22T04:28:47;0.30;92.20
22173;DHT22;11252;50.596;17.648;2023-11-22T04:31:14;0.20;92.20
22173;DHT22;11252;50.596;17.648;2023-11-22T04:33:42;0.20;92.20
22173;DHT22;11252;50.596;17.648;2023-11-22T04:36:09;0.20;92.20
22173;DHT22;11252;50.596;17.648;2023-11-22T04:39:17;0.20;92.20
22173;DHT22;11252;50.596;17.648;2023-11-22T04:41:44;0.10;92.20
22173;DHT22;11252;50.596;17.648;2023-11-22T04:46:39;0.20;92.20
22173;DHT22;11252;50.596;17.648;2023-11-22T04:49:06;0.20;92.20
22173;DHT22;11252;50.596;17.648;2023-11-22T04:51:34;0.20;92.20
22173;DHT22;11252;50.596;17.648;2023-11-22T04:54:01;0.10;92.20
22173;DHT22;11252;50.596;17.648;2023-11-22T04:56:28;0.10;92.20
22173;DHT22;11252;50.596;17.648;2023-11-22T04:58:55;0.10;92.20
22173;DHT22;11252;50.596;17.648;2023-11-22T05:01:23;0.10;92.20
22173;DHT22;11252;50.596;17.648;2023-11-22T05:03:52;0.10;92.20
22173;DHT22;11252;50.596;17.648;2023-11-22T05:06:19;0.20;92.20
22173;DHT22;11252;50.596;17.648;2023-11-22T05:08:46;0.10;92.20
22173;DHT22;11252;50.596;17.648;2023-11-22T05:11:13;0.10;92.20
22173;DHT22;11252;50.596;17.648;2023-11-22T05:13:42;0.10;92.20
22173;DHT22;11252;50.596;17.648;2023-11-22T05:16:09;0.10;92.20
22173;DHT22;11252;50.596;17.648;2023-11-22T05:18:37;0.10;92.20
22173;DHT22;11252;50.596;17.648;2023-11-22T05:21:04;0.10;92.20
22173;DHT22;11252;50.596;17.648;2023-11-22T05:23:31;0.10;92.20
22173;DHT22;11252;50.596;17.648;2023-11-22T05:26:04;0.10;92.20
22173;DHT22;11252;50.596;17.648;2023-11-22T05:28:31;0.10;92.20
22173;DHT22;11252;50.596;17.648;2023-11-22T05:30:58;0.00;92.20
22173;DHT22;11252;50.596;17.648;2023-11-22T05:33:25;0.00;92.20
22173;DHT22;11252;50.596;17.648;2023-11-22T05:35:52;0.00;92.20
22173;DHT22;11252;50.596;17.648;2023-11-22T05:38:19;0.00;92.20
22173;DHT22;11252;50.596;17.648;2023-11-22T05:40:46;0.00;92.20
22173;DHT22;11252;50.596;17.648;2023-11-22T05:43:13;-0.10;92.20
22173;DHT22;11252;50.596;17.648;2023-11-22T05:45:40;-0.10;92.20
22173;DHT22;11252;50.596;17.648;2023-11-22T05:48:07;0.00;92.20
22173;DHT22;11252;50.596;17.648;2023-11-22T05:50:34;-0.10;92.20
22173;DHT22;11252;50.596;17.648;2023-11-22T05:53:01;-0.10;92.20
22173;DHT22;11252;50.596;17.648;2023-11-22T05:55:28;-0.10;92.20
22173;DHT22;11252;50.596;17.648;2023-11-22T05:57:56;-0.10;92.20
22173;DHT22;11252;50.596;17.648;2023-11-22T06:00:23;-0.10;92.20
22173;DHT22;11252;50.596;17.648;2023-11-22T06:02:50;-0.10;92.20
22173;DHT22;11252;50.596;17.648;2023-11-22T06:05:18;-0.10;92.20
22173;DHT22;11252;50.596;17.648;2023-11-22T06:07:46;-0.10;92.20
22173;DHT22;11252;50.596;17.648;2023-11-22T06:10:14;-0.10;92.20
22173;DHT22;11252;50.596;17.648;2023-11-22T06:12:42;-0.10;92.20
22173;DHT22;11252;50.596;17.648;2023-11-22T06:15:10;-0.10;92.20
22173;DHT22;11252;50.596;17.648;2023-11-22T06:17:38;-0.10;92.20
22173;DHT22;11252;50.596;17.648;2023-11-22T06:20:06;-0.10;92.20
22173;DHT22;11252;50.596;17.648;2023-11-22T06:22:34;-0.10;92.20
22173;DHT22;11252;50.596;17.648;2023-11-22T06:25:01;-0.10;92.20
22173;DHT22;11252;50.596;17.648;2023-11-22T06:27:28;-0.10;92.20
22173;DHT22;11252;50.596;17.648;2023-11-22T06:29:55;-0.20;92.20
22173;DHT22;11252;50.596;17.648;2023-11-22T06:32:22;-0.20;92.20
22173;DHT22;11252;50.596;17.648;2023-11-22T06:34:49;-0.20;92.20
22173;DHT22;11252;50.596;17.648;2023-11-22T06:37:15;-0.10;92.20
22173;DHT22;11252;50.596;17.648;2023-11-22T06:39:44;-0.10;92.20
22173;DHT22;11252;50.596;17.648;2023-11-22T06:42:13;-0.10;92.20
22173;DHT22;11252;50.596;17.648;2023-11-22T06:44:40;-0.10;92.20
22173;DHT22;11252;50.596;17.648;2023-11-22T06:47:09;-0.10;92.20
22173;DHT22;11252;50.596;17.648;2023-11-22T06:49:36;-0.10;92.20
22173;DHT22;11252;50.596;17.648;2023-11-22T06:52:03;-0.10;92.20
22173;DHT22;11252;50.596;17.648;2023-11-22T06:54:30;-0.10;92.20
22173;DHT22;11252;50.596;17.648;2023-11-22T06:56:58;-0.10;92.20
22173;DHT22;11252;50.596;17.648;2023-11-22T06:59:24;-0.10;92.20
22173;DHT22;11252;50.596;17.648;2023-11-22T07:01:51;0.00;92.20
22173;DHT22;11252;50.596;17.648;2023-11-22T07:04:18;-0.10;92.20
22173;DHT22;11252;50.596;17.648;2023-11-22T07:06:46;-0.10;92.20
22173;DHT22;11252;50.596;17.648;2023-11-22T07:09:13;0.00;92.20
22173;DHT22;11252;50.596;17.648;2023-11-22T07:11:40;-0.10;92.20
22173;DHT22;11252;50.596;17.648;2023-11-22T07:14:08;0.00;92.20
22173;DHT22;11252;50.596;17.648;2023-11-22T07:16:35;-0.10;92.20
22173;DHT22;11252;50.596;17.648;2023-11-22T07:19:02;-0.10;92.20
22173;DHT22;11252;50.596;17.648;2023-11-22T07:21:30;-0.10;92.20
22173;DHT22;11252;50.596;17.648;2023-11-22T07:23:57;-0.10;92.20
22173;DHT22;11252;50.596;17.648;2023-11-22T07:26:25;-0.10;92.20
22173;DHT22;11252;50.596;17.648;2023-11-22T07:28:58;-0.10;92.20
22173;DHT22;11252;50.596;17.648;2023-11-22T07:31:24;-0.10;92.20
22173;DHT22;11252;50.596;17.648;2023-11-22T07:33:51;-0.10;92.20
22173;DHT22;11252;50.596;17.648;2023-11-22T07:36:18;-0.10;92.20
22173;DHT22;11252;50.596;17.648;2023-11-22T07:38:47;-0.10;92.20
22173;DHT22;11252;50.596;17.648;2023-11-22T07:41:15;-0.10;92.20
22173;DHT22;11252;50.596;17.648;2023-11-22T07:43:42;-0.10;92.20
22173;DHT22;11252;50.596;17.648;2023-11-22T07:46:09;-0.10;92.20
22173;DHT22;11252;50.596;17.648;2023-11-22T07:48:41;0.00;92.20
22173;DHT22;11252;50.596;17.648;2023-11-22T07:51:08;-0.10;92.20
22173;DHT22;11252;50.596;17.648;2023-11-22T07:53:35;-0.10;92.20
22173;DHT22;11252;50.596;17.648;2023-11-22T07:56:02;0.00;92.20
22173;DHT22;11252;50.596;17.648;2023-11-22T07:58:31;0.00;92.20
22173;DHT22;11252;50.596;17.648;2023-11-22T08:00:59;0.00;92.20
22173;DHT22;11252;50.596;17.648;2023-11-22T08:03:26;0.00;92.20
22173;DHT22;11252;50.596;17.648;2023-11-22T08:05:54;0.00;92.20
22173;DHT22;11252;50.596;17.648;2023-11-22T08:08:23;0.00;92.20
22173;DHT22;11252;50.596;17.648;2023-11-22T08:10:51;0.00;92.20
22173;DHT22;11252;50.596;17.648;2023-11-22T08:13:21;0.00;92.20
22173;DHT22;11252;50.596;17.648;2023-11-22T08:15:50;0.10;92.20
22173;DHT22;11252;50.596;17.648;2023-11-22T08:18:18;0.00;92.20
22173;DHT22;11252;50.596;17.648;2023-11-22T08:20:45;0.10;92.20
22173;DHT22;11252;50.596;17.648;2023-11-22T08:23:12;0.10;92.20
22173;DHT22;11252;50.596;17.648;2023-11-22T08:25:42;0.10;92.20
22173;DHT22;11252;50.596;17.648;2023-11-22T08:28:11;0.10;92.20
22173;DHT22;11252;50.596;17.648;2023-11-22T08:30:38;0.20;92.20
22173;DHT22;11252;50.596;17.648;2023-11-22T08:33:07;0.20;92.20
22173;DHT22;11252;50.596;17.648;2023-11-22T08:35:35;0.30;92.20
22173;DHT22;11252;50.596;17.648;2023-11-22T08:38:02;0.30;92.20
22173;DHT22;11252;50.596;17.648;2023-11-22T08:40:30;0.30;92.20
22173;DHT22;11252;50.596;17.648;2023-11-22T08:42:57;0.40;92.20
22173;DHT22;11252;50.596;17.648;2023-11-22T08:45:24;0.40;92.20
22173;DHT22;11252;50.596;17.648;2023-11-22T08:47:51;0.40;92.20
22173;DHT22;11252;50.596;17.648;2023-11-22T08:50:18;0.40;92.20
22173;DHT22;11252;50.596;17.648;2023-11-22T08:52:46;0.50;92.20
22173;DHT22;11252;50.596;17.648;2023-11-22T08:55:14;0.50;92.20
22173;DHT22;11252;50.596;17.648;2023-11-22T08:57:41;0.60;92.20
22173;DHT22;11252;50.596;17.648;2023-11-22T09:00:09;0.60;92.20
22173;DHT22;11252;50.596;17.648;2023-11-22T09:02:38;0.60;92.20
22173;DHT22;11252;50.596;17.648;2023-11-22T09:05:07;0.60;92.20
22173;DHT22;11252;50.596;17.648;2023-11-22T09:07:36;0.60;92.20
22173;DHT22;11252;50.596;17.648;2023-11-22T09:10:05;0.60;92.20
22173;DHT22;11252;50.596;17.648;2023-11-22T09:12:42;0.60;92.20
22173;DHT22;11252;50.596;17.648;2023-11-22T09:15:12;0.50;92.20
22173;DHT22;11252;50.596;17.648;2023-11-22T09:17:46;0.50;92.20
22173;DHT22;11252;50.596;17.648;2023-11-22T09:20:15;0.50;92.20
22173;DHT22;11252;50.596;17.648;2023-11-22T09:22:43;0.50;92.20
22173;DHT22;11252;50.596;17.648;2023-11-22T09:25:19;0.50;92.20
22173;DHT22;11252;50.596;17.648;2023-11-22T09:27:47;0.50;92.20
22173;DHT22;11252;50.596;17.648;2023-11-22T09:30:16;0.50;92.20
22173;DHT22;11252;50.596;17.648;2023-11-22T09:33:02;0.50;92.20
22173;DHT22;11252;50.596;17.648;2023-11-22T09:35:31;0.50;92.20
22173;DHT22;11252;50.596;17.648;2023-11-22T09:37:59;0.50;92.20
22173;DHT22;11252;50.596;17.648;2023-11-22T09:40:27;0.60;92.20
22173;DHT22;11252;50.596;17.648;2023-11-22T09:42:56;0.60;92.20
22173;DHT22;11252;50.596;17.648;2023-11-22T09:45:24;0.70;92.20
22173;DHT22;11252;50.596;17.648;2023-11-22T09:47:52;0.70;92.20
22173;DHT22;11252;50.596;17.648;2023-11-22T09:50:36;0.70;92.20
22173;DHT22;11252;50.596;17.648;2023-11-22T09:53:11;0.70;92.20
22173;DHT22;11252;50.596;17.648;2023-11-22T09:55:41;0.70;92.20
22173;DHT22;11252;50.596;17.648;2023-11-22T09:58:13;0.70;92.20
22173;DHT22;11252;50.596;17.648;2023-11-22T10:00:43;0.70;92.20
22173;DHT22;11252;50.596;17.648;2023-11-22T10:03:10;0.70;92.20
22173;DHT22;11252;50.596;17.648;2023-11-22T10:05:44;0.70;92.20
22173;DHT22;11252;50.596;17.648;2023-11-22T10:08:12;0.70;92.20
22173;DHT22;11252;50.596;17.648;2023-11-22T10:10:39;0.70;92.20
22173;DHT22;11252;50.596;17.648;2023-11-22T10:13:07;0.80;92.20
22173;DHT22;11252;50.596;17.648;2023-11-22T10:15:34;0.80;92.20
22173;DHT22;11252;50.596;17.648;2023-11-22T10:18:01;0.80;92.20
22173;DHT22;11252;50.596;17.648;2023-11-22T10:20:39;0.90;92.20
22173;DHT22;11252;50.596;17.648;2023-11-22T10:23:11;0.90;92.20
22173;DHT22;11252;50.596;17.648;2023-11-22T10:25:50;0.90;92.20
22173;DHT22;11252;50.596;17.648;2023-11-22T10:28:19;0.90;92.20
22173;DHT22;11252;50.596;17.648;2023-11-22T10:30:47;0.90;92.20
22173;DHT22;11252;50.596;17.648;2023-11-22T10:33:15;0.90;92.20
22173;DHT22;11252;50.596;17.648;2023-11-22T10:38:25;0.70;92.20
22173;DHT22;11252;50.596;17.648;2023-11-22T10:40:54;0.70;92.20
22173;DHT22;11252;50.596;17.648;2023-11-22T10:43:22;0.70;92.20
22173;DHT22;11252;50.596;17.648;2023-11-22T10:45:53;0.70;92.20
22173;DHT22;11252;50.596;17.648;2023-11-22T10:48:22;0.70;92.20
22173;DHT22;11252;50.596;17.648;2023-11-22T10:50:53;0.80;92.20
22173;DHT22;11252;50.596;17.648;2023-11-22T10:53:22;0.80;92.20
22173;DHT22;11252;50.596;17.648;2023-11-22T10:55:58;0.90;92.20
22173;DHT22;11252;50.596;17.648;2023-11-22T10:58:28;0.90;92.20
22173;DHT22;11252;50.596;17.648;2023-11-22T11:00:58;0.90;92.20
22173;DHT22;11252;50.596;17.648;2023-11-22T11:03:28;0.90;92.20
22173;DHT22;11252;50.596;17.648;2023-11-22T11:05:58;0.90;92.20
22173;DHT22;11252;50.596;17.648;2023-11-22T11:08:26;0.90;92.20
22173;DHT22;11252;50.596;17.648;2023-11-22T11:10:55;0.80;92.20
22173;DHT22;11252;50.596;17.648;2023-11-22T11:13:22;0.80;92.20
22173;DHT22;11252;50.596;17.648;2023-11-22T11:15:53;0.80;92.20
22173;DHT22;11252;50.596;17.648;2023-11-22T11:18:21;0.80;92.20
22173;DHT22;11252;50.596;17.648;2023-11-22T11:20:53;0.80;92.20
22173;DHT22;11252;50.596;17.648;2023-11-22T11:23:22;0.70;92.20
22173;DHT22;11252;50.596;17.648;2023-11-22T11:25:53;0.70;92.20
22173;DHT22;11252;50.596;17.648;2023-11-22T11:28:21;0.60;92.20
22173;DHT22;11252;50.596;17.648;2023-11-22T11:30:49;0.60;92.20
22173;DHT22;11252;50.596;17.648;2023-11-22T11:33:27;0.70;92.20
22173;DHT22;11252;50.596;17.648;2023-11-22T11:35:56;0.70;92.20
22173;DHT22;11252;50.596;17.648;2023-11-22T11:38:31;0.60;92.20
22173;DHT22;11252;50.596;17.648;2023-11-22T11:41:11;0.60;92.20
22173;DHT22;11252;50.596;17.648;2023-11-22T11:43:44;0.50;92.20
22173;DHT22;11252;50.596;17.648;2023-11-22T11:46:15;0.50;92.20
22173;DHT22;11252;50.596;17.648;2023-11-22T11:48:53;0.50;92.20
22173;DHT22;11252;50.596;17.648;2023-11-22T11:51:21;0.50;92.20
22173;DHT22;11252;50.596;17.648;2023-11-22T11:53:50;0.50;92.20
22173;DHT22;11252;50.596;17.648;2023-11-22T11:56:18;0.50;92.20
22173;DHT22;11252;50.596;17.648;2023-11-22T11:58:47;0.40;92.20
22173;DHT22;11252;50.596;17.648;2023-11-22T12:01:17;0.50;92.20
22173;DHT22;11252;50.596;17.648;2023-11-22T12:03:47;0.50;92.20
22173;DHT22;11252;50.596;17.648;2023-11-22T12:06:19;0.50;92.20
22173;DHT22;11252;50.596;17.648;2023-11-22T12:08:49;0.40;92.20
22173;DHT22;11252;50.596;17.648;2023-11-22T12:11:16;0.40;92.20
22173;DHT22;11252;50.596;17.648;2023-11-22T12:13:45;0.40;92.20
22173;DHT22;11252;50.596;17.648;2023-11-22T12:16:17;0.40;92.20
22173;DHT22;11252;50.596;17.648;2023-11-22T12:18:49;0.40;92.20
22173;DHT22;11252;50.596;17.648;2023-11-22T12:21:18;0.40;92.20
22173;DHT22;11252;50.596;17.648;2023-11-22T12:23:46;0.40;92.20
22173;DHT22;11252;50.596;17.648;2023-11-22T12:26:17;0.40;92.20
22173;DHT22;11252;50.596;17.648;2023-11-22T12:28:49;0.40;92.20
22173;DHT22;11252;50.596;17.648;2023-11-22T12:31:29;0.40;92.20
22173;DHT22;11252;50.596;17.648;2023-11-22T12:34:03;0.40;92.20
22173;DHT22;11252;50.596;17.648;2023-11-22T12:36:31;0.40;92.20
22173;DHT22;11252;50.596;17.648;2023-11-22T12:38:59;0.40;92.20
22173;DHT22;11252;50.596;17.648;2023-11-22T12:41:27;0.40;92.20
22173;DHT22;11252;50.596;17.648;2023-11-22T12:44:07;0.40;92.20
22173;DHT22;11252;50.596;17.648;2023-11-22T12:46:49;0.40;92.20
22173;DHT22;11252;50.596;17.648;2023-11-22T12:49:17;0.40;92.20
22173;DHT22;11252;50.596;17.648;2023-11-22T12:51:50;0.40;92.20
22173;DHT22;11252;50.596;17.648;2023-11-22T12:54:17;0.40;92.20
22173;DHT22;11252;50.596;17.648;2023-11-22T12:56:51;0.40;92.20
22173;DHT22;11252;50.596;17.648;2023-11-22T12:59:26;0.40;92.20
22173;DHT22;11252;50.596;17.648;2023-11-22T13:01:58;0.40;92.20
22173;DHT22;11252;50.596;17.648;2023-11-22T13:04:28;0.40;92.20
22173;DHT22;11252;50.596;17.648;2023-11-22T13:06:59;0.40;92.20
22173;DHT22;11252;50.596;17.648;2023-11-22T13:09:27;0.50;92.20
22173;DHT22;11252;50.596;17.648;2023-11-22T13:11:54;0.50;92.20
22173;DHT22;11252;50.596;17.648;2023-11-22T13:14:21;0.40;92.20
22173;DHT22;11252;50.596;17.648;2023-11-22T13:16:50;0.50;92.20
22173;DHT22;11252;50.596;17.648;2023-11-22T13:19:17;0.50;92.20
22173;DHT22;11252;50.596;17.648;2023-11-22T13:21:45;0.50;92.20
22173;DHT22;11252;50.596;17.648;2023-11-22T13:24:14;0.50;92.20
22173;DHT22;11252;50.596;17.648;2023-11-22T13:26:43;0.50;92.20
22173;DHT22;11252;50.596;17.648;2023-11-22T13:29:10;0.50;92.20
22173;DHT22;11252;50.596;17.648;2023-11-22T13:31:37;0.50;92.20
22173;DHT22;11252;50.596;17.648;2023-11-22T13:34:05;0.50;92.20
22173;DHT22;11252;50.596;17.648;2023-11-22T13:36:32;0.50;92.20
22173;DHT22;11252;50.596;17.648;2023-11-22T13:39:00;0.50;92.20
22173;DHT22;11252;50.596;17.648;2023-11-22T13:41:31;0.50;92.20
22173;DHT22;11252;50.596;17.648;2023-11-22T13:43:59;0.40;92.20
22173;DHT22;11252;50.596;17.648;2023-11-22T13:46:28;0.40;92.20
22173;DHT22;11252;50.596;17.648;2023-11-22T13:48:55;0.30;92.20
22173;DHT22;11252;50.596;17.648;2023-11-22T13:51:22;0.30;92.20
22173;DHT22;11252;50.596;17.648;2023-11-22T13:53:52;0.30;92.20
22173;DHT22;11252;50.596;17.648;2023-11-22T13:56:20;0.30;92.20
22173;DHT22;11252;50.596;17.648;2023-11-22T13:58:49;0.30;92.20
22173;DHT22;11252;50.596;17.648;2023-11-22T14:01:16;0.30;92.20
22173;DHT22;11252;50.596;17.648;2023-11-22T14:03:49;0.20;92.20
22173;DHT22;11252;50.596;17.648;2023-11-22T14:06:16;0.20;92.20
22173;DHT22;11252;50.596;17.648;2023-11-22T14:08:44;0.20;92.20
22173;DHT22;11252;50.596;17.648;2023-11-22T14:11:12;0.10;92.20
22173;DHT22;11252;50.596;17.648;2023-11-22T14:13:40;0.10;92.20
22173;DHT22;11252;50.596;17.648;2023-11-22T14:16:08;0.20;92.20
22173;DHT22;11252;50.596;17.648;2023-11-22T14:18:37;0.20;92.20
22173;DHT22;11252;50.596;17.648;2023-11-22T14:21:05;0.20;92.20
22173;DHT22;11252;50.596;17.648;2023-11-22T14:23:33;0.10;92.20
22173;DHT22;11252;50.596;17.648;2023-11-22T14:26:00;0.10;92.20
22173;DHT22;11252;50.596;17.648;2023-11-22T14:28:27;0.10;92.20
22173;DHT22;11252;50.596;17.648;2023-11-22T14:30:55;0.10;92.20
22173;DHT22;11252;50.596;17.648;2023-11-22T14:33:22;0.10;92.20
22173;DHT22;11252;50.596;17.648;2023-11-22T14:35:50;0.10;92.20
22173;DHT22;11252;50.596;17.648;2023-11-22T14:38:17;0.10;92.20
22173;DHT22;11252;50.596;17.648;2023-11-22T14:40:45;0.00;92.20
22173;DHT22;11252;50.596;17.648;2023-11-22T14:43:13;0.00;92.20
22173;DHT22;11252;50.596;17.648;2023-11-22T14:45:40;0.00;92.20
22173;DHT22;11252;50.596;17.648;2023-11-22T14:48:08;0.00;92.20
22173;DHT22;11252;50.596;17.648;2023-11-22T14:50:36;0.00;92.20
22173;DHT22;11252;50.596;17.648;2023-11-22T14:53:04;0.00;92.20
22173;DHT22;11252;50.596;17.648;2023-11-22T14:55:32;0.00;92.20
22173;DHT22;11252;50.596;17.648;2023-11-22T14:58:00;0.00;92.20
22173;DHT22;11252;50.596;17.648;2023-11-22T15:00:27;-0.10;92.20
22173;DHT22;11252;50.596;17.648;2023-11-22T15:02:56;-0.10;92.20
22173;DHT22;11252;50.596;17.648;2023-11-22T15:05:24;-0.10;92.20
22173;DHT22;11252;50.596;17.648;2023-11-22T15:07:53;0.00;92.20
22173;DHT22;11252;50.596;17.648;2023-11-22T15:10:24;0.00;92.20
22173;DHT22;11252;50.596;17.648;2023-11-22T15:12:53;0.00;92.20
22173;DHT22;11252;50.596;17.648;2023-11-22T15:15:22;0.00;92.20
22173;DHT22;11252;50.596;17.648;2023-11-22T15:17:52;0.00;92.20
22173;DHT22;11252;50.596;17.648;2023-11-22T15:20:21;-0.10;92.20
22173;DHT22;11252;50.596;17.648;2023-11-22T15:22:49;-0.10;92.20
22173;DHT22;11252;50.596;17.648;2023-11-22T15:25:17;-0.10;92.20
22173;DHT22;11252;50.596;17.648;2023-11-22T15:27:45;-0.10;92.20
22173;DHT22;11252;50.596;17.648;2023-11-22T15:30:12;-0.10;92.20
22173;DHT22;11252;50.596;17.648;2023-11-22T15:32:40;-0.20;92.20
22173;DHT22;11252;50.596;17.648;2023-11-22T15:35:07;-0.20;92.20
22173;DHT22;11252;50.596;17.648;2023-11-22T15:37:35;-0.20;92.20
22173;DHT22;11252;50.596;17.648;2023-11-22T15:40:04;-0.10;92.20
22173;DHT22;11252;50.596;17.648;2023-11-22T15:42:32;-0.20;92.20